sensor_id;sensor_type;location;lat;lon;timestamp;pressure;altitude;pressure_sealevel;temperature;humidity
16100;BME280;8154;50.830;12.082;2023-04-27T04:27:33;99780.97;;;22.69;36.99
16100;BME280;8154;50.830;12.082;2023-04-27T04:29:59;99776.28;;;22.56;37.35
16100;BME280;8154;50.830;12.082;2023-04-27T04:32:26;99787.47;;;22.52;37.18
16100;BME280;8154;50.830;12.082;2023-04-27T04:34:56;99785.81;;;22.51;37.38
16100;BME280;8154;50.830;12.082;2023-04-27T04:37:24;99786.09;;;22.56;37.38
16100;BME280;8154;50.830;12.082;2023-04-27T04:39:51;99781.91;;;22.61;37.08
16100;BME280;8154;50.830;12.082;2023-04-27T04:42:17;99785.72;;;22.59;37.17
16100;BME280;8154;50.830;12.082;2023-04-27T04:44:43;99785.53;;;22.60;37.24
16100;BME280;8154;50.830;12.082;2023-04-27T04:47:10;99786.84;;;22.64;36.89
16100;BME280;8154;50.830;12.082;2023-04-27T04:49:38;99791.91;;;22.59;37.07
16100;BME280;8154;50.830;12.082;2023-04-27T04:52:04;99785.38;;;22.62;37.03
16100;BME280;8154;50.830;12.082;2023-04-27T04:54:31;99787.41;;;22.60;37.06
16100;BME280;8154;50.830;12.082;2023-04-27T04:56:57;99784.09;;;22.72;36.86
16100;BME280;8154;50.830;12.082;2023-04-27T04:59:24;99782.50;;;22.63;37.25
16100;BME280;8154;50.830;12.082;2023-04-27T05:01:50;99772.59;;;22.57;37.36
16100;BME280;8154;50.830;12.082;2023-04-27T05:04:20;99784.91;;;22.58;37.33
16100;BME280;8154;50.830;12.082;2023-04-27T05:06:47;99786.09;;;22.56;37.18
16100;BME280;8154;50.830;12.082;2023-04-27T05:09:13;99788.56;;;22.57;37.25
16100;BME280;8154;50.830;12.082;2023-04-27T05:11:40;99792.75;;;22.60;37.29
16100;BME280;8154;50.830;12.082;2023-04-27T05:14:06;99787.13;;;22.55;37.11
16100;BME280;8154;50.830;12.082;2023-04-27T05:16:51;99796.59;;;22.49;37.37
16100;BME280;8154;50.830;12.082;2023-04-27T05:19:17;99799.06;;;22.59;37.45
16100;BME280;8154;50.830;12.082;2023-04-27T05:21:45;99808.06;;;22.58;37.08
16100;BME280;8154;50.830;12.082;2023-04-27T05:24:11;99794.38;;;22.61;37.15
16100;BME280;8154;50.830;12.082;2023-04-27T05:26:38;99791.16;;;22.65;37.01
16100;BME280;8154;50.830;12.082;2023-04-27T05:29:04;99785.94;;;22.72;37.01
16100;BME280;8154;50.830;12.082;2023-04-27T05:31:31;99791.91;;;22.74;36.98
16100;BME280;8154;50.830;12.082;2023-04-27T05:33:57;99783.00;;;22.67;37.01
16100;BME280;8154;50.830;12.082;2023-04-27T05:36:23;99785.09;;;22.57;37.27
16100;BME280;8154;50.830;12.082;2023-04-27T05:39:13;99784.56;;;22.61;37.30
16100;BME280;8154;50.830;12.082;2023-04-27T05:41:39;99786.56;;;22.59;37.29
16100;BME280;8154;50.830;12.082;2023-04-27T05:44:05;99780.94;;;22.54;37.38
16100;BME280;8154;50.830;12.082;2023-04-27T05:46:41;99780.81;;;22.48;37.33
16100;BME280;8154;50.830;12.082;2023-04-27T05:49:07;99788.00;;;22.47;37.58
16100;BME280;8154;50.830;12.082;2023-04-27T05:51:33;99782.66;;;22.47;37.63
16100;BME280;8154;50.830;12.082;2023-04-27T05:54:00;99780.28;;;22.52;37.79
16100;BME280;8154;50.830;12.082;2023-04-27T05:56:27;99774.28;;;22.58;37.67
16100;BME280;8154;50.830;12.082;2023-04-27T05:58:53;99779.59;;;22.58;37.46
16100;BME280;8154;50.830;12.082;2023-04-27T06:01:19;99772.13;;;22.54;37.61
16100;BME280;8154;50.830;12.082;2023-04-27T06:03:46;99773.63;;;22.56;37.57
16100;BME280;8154;50.830;12.082;2023-04-27T06:06:12;99772.03;;;22.62;37.63
16100;BME280;8154;50.830;12.082;2023-04-27T06:08:39;99771.41;;;22.60;37.65
16100;BME280;8154;50.830;12.082;2023-04-27T06:11:05;99778.28;;;22.54;37.95
16100;BME280;8154;50.830;12.082;2023-04-27T06:13:31;99775.63;;;22.54;37.81
16100;BME280;8154;50.830;12.082;2023-04-27T06:15:58;99775.91;;;22.59;37.82
16100;BME280;8154;50.830;12.082;2023-04-27T06:18:26;99780.88;;;22.62;37.86
16100;BME280;8154;50.830;12.082;2023-04-27T06:20:57;99784.75;;;22.60;37.76
16100;BME280;8154;50.830;12.082;2023-04-27T06:23:24;99792.56;;;22.61;37.99
16100;BME280;8154;50.830;12.082;2023-04-27T06:25:50;99800.44;;;22.69;37.62
16100;BME280;8154;50.830;12.082;2023-04-27T06:28:16;99799.25;;;22.72;37.83
16100;BME280;8154;50.830;12.082;2023-04-27T06:30:43;99807.81;;;22.67;37.92
16100;BME280;8154;50.830;12.082;2023-04-27T06:33:10;99809.16;;;22.63;37.96
16100;BME280;8154;50.830;12.082;2023-04-27T06:35:36;99812.84;;;22.62;38.24
16100;BME280;8154;50.830;12.082;2023-04-27T06:38:22;99811.66;;;22.65;38.06
16100;BME280;8154;50.830;12.082;2023-04-27T06:40:50;99807.44;;;22.70;38.03
16100;BME280;8154;50.830;12.082;2023-04-27T06:43:19;99810.72;;;22.72;38.01
16100;BME280;8154;50.830;12.082;2023-04-27T06:45:45;99804.13;;;22.68;38.16
16100;BME280;8154;50.830;12.082;2023-04-27T06:48:12;99806.59;;;22.70;37.95
16100;BME280;8154;50.830;12.082;2023-04-27T06:50:38;99808.53;;;22.76;38.24
16100;BME280;8154;50.830;12.082;2023-04-27T06:53:05;99818.03;;;22.79;38.19
16100;BME280;8154;50.830;12.082;2023-04-27T06:55:31;99820.88;;;22.77;38.13
16100;BME280;8154;50.830;12.082;2023-04-27T06:57:58;99818.38;;;22.76;38.32
16100;BME280;8154;50.830;12.082;2023-04-27T07:00:24;99815.34;;;22.79;38.18
16100;BME280;8154;50.830;12.082;2023-04-27T07:02:53;99815.97;;;22.81;38.21
16100;BME280;8154;50.830;12.082;2023-04-27T07:05:20;99814.34;;;22.80;38.19
16100;BME280;8154;50.830;12.082;2023-04-27T07:07:46;99813.50;;;22.79;38.08
16100;BME280;8154;50.830;12.082;2023-04-27T07:10:12;99813.97;;;22.83;38.22
16100;BME280;8154;50.830;12.082;2023-04-27T07:12:39;99817.28;;;22.85;38.35
16100;BME280;8154;50.830;12.082;2023-04-27T07:15:08;99813.31;;;22.81;38.43
16100;BME280;8154;50.830;12.082;2023-04-27T07:17:43;99815.34;;;22.79;38.54
16100;BME280;8154;50.830;12.082;2023-04-27T07:20:09;99819.97;;;22.85;38.40
16100;BME280;8154;50.830;12.082;2023-04-27T07:22:36;99817.91;;;22.87;38.35
16100;BME280;8154;50.830;12.082;2023-04-27T07:25:29;99820.13;;;22.83;38.30
16100;BME280;8154;50.830;12.082;2023-04-27T07:27:55;99813.97;;;22.83;38.35
16100;BME280;8154;50.830;12.082;2023-04-27T08:31:59;99816.81;;;23.10;38.85
16100;BME280;8154;50.830;12.082;2023-04-27T08:34:28;99817.66;;;23.11;38.71
16100;BME280;8154;50.830;12.082;2023-04-27T08:36:55;99812.34;;;23.11;38.64
16100;BME280;8154;50.830;12.082;2023-04-27T08:39:23;99812.97;;;23.13;38.89
16100;BME280;8154;50.830;12.082;2023-04-27T08:41:49;99815.28;;;23.16;38.80
16100;BME280;8154;50.830;12.082;2023-04-27T08:44:15;99810.56;;;23.18;38.73
16100;BME280;8154;50.830;12.082;2023-04-27T08:46:42;99815.72;;;23.19;38.69
16100;BME280;8154;50.830;12.082;2023-04-27T08:49:08;99815.53;;;23.21;38.46
16100;BME280;8154;50.830;12.082;2023-04-27T08:51:35;99814.34;;;23.23;38.46
16100;BME280;8154;50.830;12.082;2023-04-27T08:54:17;99808.00;;;23.24;38.69
16100;BME280;8154;50.830;12.082;2023-04-27T08:56:44;99803.34;;;23.26;38.43
16100;BME280;8154;50.830;12.082;2023-04-27T08:59:14;99806.34;;;23.23;38.72
16100;BME280;8154;50.830;12.082;2023-04-27T09:01:47;99807.53;;;23.21;38.54
16100;BME280;8154;50.830;12.082;2023-04-27T09:04:16;99810.66;;;23.24;38.61
16100;BME280;8154;50.830;12.082;2023-04-27T09:06:47;99801.47;;;23.27;38.47
16100;BME280;8154;50.830;12.082;2023-04-27T09:09:21;99797.81;;;23.28;38.64
16100;BME280;8154;50.830;12.082;2023-04-27T09:11:48;99802.13;;;23.29;38.43
16100;BME280;8154;50.830;12.082;2023-04-27T09:14:23;99810.13;;;23.29;38.43
16100;BME280;8154;50.830;12.082;2023-04-27T09:16:57;99801.13;;;23.30;38.71
16100;BME280;8154;50.830;12.082;2023-04-27T09:19:26;99806.81;;;23.27;38.54
16100;BME280;8154;50.830;12.082;2023-04-27T09:22:09;99808.69;;;23.26;38.66
16100;BME280;8154;50.830;12.082;2023-04-27T09:24:38;99807.47;;;23.29;38.48
16100;BME280;8154;50.830;12.082;2023-04-27T09:27:20;99792.31;;;23.29;38.48
16100;BME280;8154;50.830;12.082;2023-04-27T09:29:48;99795.81;;;23.30;38.68
16100;BME280;8154;50.830;12.082;2023-04-27T10:34:14;99772.22;;;23.33;38.42
16100;BME280;8154;50.830;12.082;2023-04-27T10:36:42;99758.63;;;23.28;38.43
16100;BME280;8154;50.830;12.082;2023-04-27T10:39:20;99763.81;;;23.30;38.54
16100;BME280;8154;50.830;12.082;2023-04-27T10:41:55;99750.91;;;23.33;38.11
16100;BME280;8154;50.830;12.082;2023-04-27T10:44:28;99750.47;;;23.30;38.36
16100;BME280;8154;50.830;12.082;2023-04-27T10:46:59;99761.28;;;23.28;38.33
16100;BME280;8154;50.830;12.082;2023-04-27T10:49:27;99758.63;;;23.28;38.13
16100;BME280;8154;50.830;12.082;2023-04-27T10:51:58;99756.03;;;23.35;37.96
16100;BME280;8154;50.830;12.082;2023-04-27T10:54:27;99756.88;;;23.35;38.08
16100;BME280;8154;50.830;12.082;2023-04-27T10:57:04;99757.91;;;23.34;38.04
16100;BME280;8154;50.830;12.082;2023-04-27T10:59:31;99754.59;;;23.32;38.21
16100;BME280;8154;50.830;12.082;2023-04-27T11:02:00;99754.31;;;23.27;38.30
16100;BME280;8154;50.830;12.082;2023-04-27T11:04:39;99749.91;;;23.34;37.91
16100;BME280;8154;50.830;12.082;2023-04-27T11:07:09;99757.34;;;23.39;37.79
16100;BME280;8154;50.830;12.082;2023-04-27T11:09:36;99751.81;;;23.40;37.94
16100;BME280;8154;50.830;12.082;2023-04-27T11:12:07;99749.16;;;23.40;38.02
16100;BME280;8154;50.830;12.082;2023-04-27T11:14:35;99754.84;;;23.37;37.76
16100;BME280;8154;50.830;12.082;2023-04-27T11:17:02;99752.13;;;23.31;37.98
16100;BME280;8154;50.830;12.082;2023-04-27T11:19:29;99757.53;;;23.37;37.94
16100;BME280;8154;50.830;12.082;2023-04-27T11:22:03;99756.31;;;23.40;37.64
16100;BME280;8154;50.830;12.082;2023-04-27T11:24:30;99750.72;;;23.35;37.85
16100;BME280;8154;50.830;12.082;2023-04-27T11:26:57;99755.63;;;23.31;38.04
16100;BME280;8154;50.830;12.082;2023-04-27T11:29:23;99749.06;;;23.34;38.09
16100;BME280;8154;50.830;12.082;2023-04-27T11:31:50;99742.34;;;23.38;37.86
16100;BME280;8154;50.830;12.082;2023-04-27T11:34:19;99743.44;;;23.43;37.75
16100;BME280;8154;50.830;12.082;2023-04-27T11:37:04;99753.09;;;23.44;37.64
16100;BME280;8154;50.830;12.082;2023-04-27T11:39:37;99762.88;;;23.37;37.87
16100;BME280;8154;50.830;12.082;2023-04-27T11:42:16;99747.44;;;23.33;37.88
16100;BME280;8154;50.830;12.082;2023-04-27T11:45:05;99748.31;;;23.40;37.95
16100;BME280;8154;50.830;12.082;2023-04-27T11:47:33;99747.75;;;23.44;37.50
16100;BME280;8154;50.830;12.082;2023-04-27T11:50:24;99753.28;;;23.43;37.80
16100;BME280;8154;50.830;12.082;2023-04-27T11:52:54;99755.56;;;23.46;37.47
16100;BME280;8154;50.830;12.082;2023-04-27T11:55:21;99751.34;;;23.37;37.88
16100;BME280;8154;50.830;12.082;2023-04-27T11:57:56;99754.41;;;23.34;38.04
16100;BME280;8154;50.830;12.082;2023-04-27T12:00:23;99752.81;;;23.39;37.80
16100;BME280;8154;50.830;12.082;2023-04-27T12:02:50;99757.59;;;23.44;37.71
16100;BME280;8154;50.830;12.082;2023-04-27T12:05:17;99751.16;;;23.38;37.82
16100;BME280;8154;50.830;12.082;2023-04-27T12:07:45;99749.91;;;23.34;38.02
16100;BME280;8154;50.830;12.082;2023-04-27T12:10:11;99753.00;;;23.38;38.00
16100;BME280;8154;50.830;12.082;2023-04-27T12:12:37;99748.13;;;23.41;37.55
16100;BME280;8154;50.830;12.082;2023-04-27T12:15:04;99753.38;;;23.35;37.66
16100;BME280;8154;50.830;12.082;2023-04-27T12:17:48;99744.94;;;23.31;37.91
16100;BME280;8154;50.830;12.082;2023-04-27T12:20:14;99742.72;;;23.35;37.61
16100;BME280;8154;50.830;12.082;2023-04-27T12:22:40;99739.66;;;23.38;37.79
16100;BME280;8154;50.830;12.082;2023-04-27T12:25:06;99739.47;;;23.39;37.62
16100;BME280;8154;50.830;12.082;2023-04-27T12:27:33;99738.28;;;23.42;37.54
16100;BME280;8154;50.830;12.082;2023-04-27T12:29:59;99740.69;;;23.37;37.55
16100;BME280;8154;50.830;12.082;2023-04-27T12:32:25;99735.09;;;23.32;37.85
16100;BME280;8154;50.830;12.082;2023-04-27T12:35:18;99738.66;;;23.39;37.62
16100;BME280;8154;50.830;12.082;2023-04-27T12:37:44;99734.97;;;23.40;37.54
16100;BME280;8154;50.830;12.082;2023-04-27T12:40:12;99730.03;;;23.37;37.74
16100;BME280;8154;50.830;12.082;2023-04-27T12:42:39;99736.75;;;23.33;37.94
16100;BME280;8154;50.830;12.082;2023-04-27T12:45:06;99735.16;;;23.38;37.43
16100;BME280;8154;50.830;12.082;2023-04-27T12:47:32;99734.78;;;23.41;37.36
16100;BME280;8154;50.830;12.082;2023-04-27T12:50:03;99726.50;;;23.36;37.69
16100;BME280;8154;50.830;12.082;2023-04-27T12:52:31;99734.09;;;23.33;37.54
16100;BME280;8154;50.830;12.082;2023-04-27T12:54:57;99743.53;;;23.35;37.60
16100;BME280;8154;50.830;12.082;2023-04-27T12:57:24;99737.66;;;23.40;37.42
16100;BME280;8154;50.830;12.082;2023-04-27T12:59:52;99737.56;;;23.33;37.60
16100;BME280;8154;50.830;12.082;2023-04-27T13:02:18;99731.41;;;23.33;37.63
16100;BME280;8154;50.830;12.082;2023-04-27T13:04:44;99735.34;;;23.37;37.38
16100;BME280;8154;50.830;12.082;2023-04-27T13:07:11;99738.66;;;23.39;37.66
16100;BME280;8154;50.830;12.082;2023-04-27T13:09:38;99740.03;;;23.35;37.57
16100;BME280;8154;50.830;12.082;2023-04-27T13:12:04;99733.25;;;23.32;37.50
16100;BME280;8154;50.830;12.082;2023-04-27T13:14:30;99730.59;;;23.32;37.52
16100;BME280;8154;50.830;12.082;2023-04-27T13:17:01;99731.47;;;23.39;37.58
16100;BME280;8154;50.830;12.082;2023-04-27T13:19:27;99728.00;;;23.39;37.56
16100;BME280;8154;50.830;12.082;2023-04-27T13:21:53;99736.75;;;23.33;37.53
16100;BME280;8154;50.830;12.082;2023-04-27T13:24:20;99735.72;;;23.34;37.66
16100;BME280;8154;50.830;12.082;2023-04-27T13:26:46;99732.97;;;23.42;37.21
16100;BME280;8154;50.830;12.082;2023-04-27T13:29:12;99731.09;;;23.42;37.39
16100;BME280;8154;50.830;12.082;2023-04-27T13:31:39;99730.28;;;23.42;37.72
16100;BME280;8154;50.830;12.082;2023-04-27T13:34:06;99733.53;;;23.37;37.34
16100;BME280;8154;50.830;12.082;2023-04-27T13:36:32;99724.88;;;23.35;37.47
16100;BME280;8154;50.830;12.082;2023-04-27T13:38:58;99721.19;;;23.36;37.37
16100;BME280;8154;50.830;12.082;2023-04-27T13:41:26;99714.47;;;23.40;37.48
16100;BME280;8154;50.830;12.082;2023-04-27T13:43:52;99720.81;;;23.39;37.54
16100;BME280;8154;50.830;12.082;2023-04-27T13:46:18;99716.88;;;23.35;37.46
16100;BME280;8154;50.830;12.082;2023-04-27T13:48:45;99716.22;;;23.33;37.48
16100;BME280;8154;50.830;12.082;2023-04-27T13:51:12;99709.31;;;23.39;37.29
16100;BME280;8154;50.830;12.082;2023-04-27T13:53:39;99712.59;;;23.41;37.11
16100;BME280;8154;50.830;12.082;2023-04-27T13:56:05;99714.41;;;23.34;37.54
16100;BME280;8154;50.830;12.082;2023-04-27T13:58:31;99710.28;;;23.31;37.81
16100;BME280;8154;50.830;12.082;2023-04-27T14:00:58;99710.97;;;23.40;37.47
16100;BME280;8154;50.830;12.082;2023-04-27T14:03:24;99710.31;;;23.38;37.31
16100;BME280;8154;50.830;12.082;2023-04-27T14:05:50;99707.22;;;23.34;37.39
16100;BME280;8154;50.830;12.082;2023-04-27T14:08:17;99711.72;;;23.34;37.60
16100;BME280;8154;50.830;12.082;2023-04-27T14:10:55;99706.00;;;23.37;37.67
16100;BME280;8154;50.830;12.082;2023-04-27T14:13:24;99708.94;;;23.42;37.17
16100;BME280;8154;50.830;12.082;2023-04-27T14:15:50;99701.91;;;23.34;37.39
16100;BME280;8154;50.830;12.082;2023-04-27T14:18:34;99704.56;;;23.34;37.50
16100;BME280;8154;50.830;12.082;2023-04-27T14:21:01;99705.00;;;23.38;37.19
16100;BME280;8154;50.830;12.082;2023-04-27T14:23:27;99698.47;;;23.40;37.38
16100;BME280;8154;50.830;12.082;2023-04-27T14:25:53;99697.75;;;23.32;37.45
16100;BME280;8154;50.830;12.082;2023-04-27T14:28:21;99690.97;;;23.29;37.34
16100;BME280;8154;50.830;12.082;2023-04-27T14:30:47;99700.69;;;23.37;37.25
16100;BME280;8154;50.830;12.082;2023-04-27T14:33:14;99700.09;;;23.41;37.22
16100;BME280;8154;50.830;12.082;2023-04-27T14:35:41;99698.59;;;23.32;37.45
16100;BME280;8154;50.830;12.082;2023-04-27T14:38:09;99698.78;;;23.31;37.33
16100;BME280;8154;50.830;12.082;2023-04-27T14:40:37;99694.69;;;23.35;37.12
16100;BME280;8154;50.830;12.082;2023-04-27T14:43:03;99704.78;;;23.39;37.35
16100;BME280;8154;50.830;12.082;2023-04-27T14:45:29;99710.09;;;23.33;37.40
16100;BME280;8154;50.830;12.082;2023-04-27T14:47:56;99706.97;;;23.29;37.45
16100;BME280;8154;50.830;12.082;2023-04-27T14:50:22;99715.03;;;23.36;37.22
16100;BME280;8154;50.830;12.082;2023-04-27T14:52:49;99713.00;;;23.38;37.32
16100;BME280;8154;50.830;12.082;2023-04-27T14:55:17;99718.69;;;23.35;37.38
16100;BME280;8154;50.830;12.082;2023-04-27T14:57:43;99714.78;;;23.31;37.44
16100;BME280;8154;50.830;12.082;2023-04-27T15:00:11;99719.53;;;23.35;37.03
16100;BME280;8154;50.830;12.082;2023-04-27T15:02:39;99709.31;;;23.39;37.25
16100;BME280;8154;50.830;12.082;2023-04-27T15:05:05;99715.41;;;23.33;36.96
16100;BME280;8154;50.830;12.082;2023-04-27T15:07:38;99716.78;;;23.29;37.21
16100;BME280;8154;50.830;12.082;2023-04-27T15:10:05;99712.38;;;23.36;37.33
16100;BME280;8154;50.830;12.082;2023-04-27T15:12:32;99717.94;;;23.41;36.97
16100;BME280;8154;50.830;12.082;2023-04-27T15:14:58;99705.19;;;23.36;37.18
16100;BME280;8154;50.830;12.082;2023-04-27T15:17:25;99701.06;;;23.34;37.01
16100;BME280;8154;50.830;12.082;2023-04-27T15:19:51;99705.13;;;23.30;37.10
16100;BME280;8154;50.830;12.082;2023-04-27T15:22:17;99706.78;;;23.31;37.32
16100;BME280;8154;50.830;12.082;2023-04-27T15:24:43;99705.13;;;23.30;36.92
16100;BME280;8154;50.830;12.082;2023-04-27T15:27:11;99702.31;;;23.38;36.99
16100;BME280;8154;50.830;12.082;2023-04-27T15:29:37;99702.50;;;23.36;37.32
16100;BME280;8154;50.830;12.082;2023-04-27T15:32:03;99703.72;;;23.34;37.19
16100;BME280;8154;50.830;12.082;2023-04-27T15:34:30;99695.53;;;23.35;36.90
16100;BME280;8154;50.830;12.082;2023-04-27T15:36:56;99696.78;;;23.39;36.66
16100;BME280;8154;50.830;12.082;2023-04-27T15:39:22;99702.31;;;23.38;36.82
16100;BME280;8154;50.830;12.082;2023-04-27T15:41:49;99704.38;;;23.36;36.78
16100;BME280;8154;50.830;12.082;2023-04-27T15:44:15;99705.38;;;23.35;37.17
16100;BME280;8154;50.830;12.082;2023-04-27T15:46:42;99689.81;;;23.38;36.87
16100;BME280;8154;50.830;12.082;2023-04-27T15:49:08;99682.66;;;23.39;36.83
16100;BME280;8154;50.830;12.082;2023-04-27T15:51:34;99683.03;;;23.36;36.94
16100;BME280;8154;50.830;12.082;2023-04-27T15:54:01;99685.06;;;23.34;36.78
16100;BME280;8154;50.830;12.082;2023-04-27T15:56:27;99683.47;;;23.39;36.85
16100;BME280;8154;50.830;12.082;2023-04-27T15:58:53;99678.59;;;23.43;36.85
16100;BME280;8154;50.830;12.082;2023-04-27T16:01:21;99670.50;;;23.36;36.90
16100;BME280;8154;50.830;12.082;2023-04-27T16:03:47;99678.50;;;23.36;37.00
16100;BME280;8154;50.830;12.082;2023-04-27T16:06:13;99681.44;;;23.41;36.66
16100;BME280;8154;50.830;12.082;2023-04-27T16:08:40;99668.28;;;23.40;36.72
16100;BME280;8154;50.830;12.082;2023-04-27T16:11:06;99666.00;;;23.37;36.97
16100;BME280;8154;50.830;12.082;2023-04-27T16:13:33;99669.06;;;23.34;36.93
16100;BME280;8154;50.830;12.082;2023-04-27T16:15:59;99669.69;;;23.36;36.82
16100;BME280;8154;50.830;12.082;2023-04-27T16:18:25;99659.66;;;23.38;36.90
16100;BME280;8154;50.830;12.082;2023-04-27T16:20:52;99664.97;;;23.38;36.76
16100;BME280;8154;50.830;12.082;2023-04-27T16:23:18;99659.66;;;23.38;36.74
16100;BME280;8154;50.830;12.082;2023-04-27T16:25:45;99660.66;;;23.37;36.93
16100;BME280;8154;50.830;12.082;2023-04-27T16:28:12;99663.34;;;23.37;36.91
16100;BME280;8154;50.830;12.082;2023-04-27T16:30:38;99656.56;;;23.34;36.97
16100;BME280;8154;50.830;12.082;2023-04-27T16:33:04;99656.56;;;23.34;37.02
16100;BME280;8154;50.830;12.082;2023-04-27T18:38:54;99709.81;;;23.28;36.39
16100;BME280;8154;50.830;12.082;2023-04-27T18:41:23;99703.66;;;23.27;36.41
16100;BME280;8154;50.830;12.082;2023-04-27T18:43:50;99704.00;;;23.24;36.43
16100;BME280;8154;50.830;12.082;2023-04-27T18:46:48;99696.84;;;23.25;36.45
16100;BME280;8154;50.830;12.082;2023-04-27T18:49:14;99698.31;;;23.27;36.34
16100;BME280;8154;50.830;12.082;2023-04-27T18:51:40;99701.81;;;23.28;36.02
16100;BME280;8154;50.830;12.082;2023-04-27T18:54:06;99711.16;;;23.24;36.42
16100;BME280;8154;50.830;12.082;2023-04-27T18:56:34;99709.16;;;23.26;36.18
16100;BME280;8154;50.830;12.082;2023-04-27T18:59:00;99712.00;;;23.24;36.49
16100;BME280;8154;50.830;12.082;2023-04-27T19:01:27;99715.53;;;23.25;36.08
16100;BME280;8154;50.830;12.082;2023-04-27T19:03:57;99709.81;;;23.28;36.01
16100;BME280;8154;50.830;12.082;2023-04-27T19:06:23;99706.31;;;23.27;36.24
16100;BME280;8154;50.830;12.082;2023-04-27T19:08:50;99701.63;;;23.29;36.07
16100;BME280;8154;50.830;12.082;2023-04-27T19:11:16;99698.50;;;23.26;35.87
16100;BME280;8154;50.830;12.082;2023-04-27T19:13:48;99698.50;;;23.26;36.30
16100;BME280;8154;50.830;12.082;2023-04-27T19:16:15;99705.00;;;23.23;36.22
16100;BME280;8154;50.830;12.082;2023-04-27T19:18:42;99699.34;;;23.26;36.08
16100;BME280;8154;50.830;12.082;2023-04-27T19:21:09;99705.13;;;23.30;36.13
16100;BME280;8154;50.830;12.082;2023-04-27T19:23:35;99702.47;;;23.30;35.95
16100;BME280;8154;50.830;12.082;2023-04-27T19:26:01;99703.84;;;23.26;36.04
16100;BME280;8154;50.830;12.082;2023-04-27T19:28:28;99709.31;;;23.24;36.20
16100;BME280;8154;50.830;12.082;2023-04-27T19:30:54;99702.63;;;23.28;35.84
16100;BME280;8154;50.830;12.082;2023-04-27T19:33:21;99706.50;;;23.26;36.00
16100;BME280;8154;50.830;12.082;2023-04-27T19:35:46;99700.13;;;23.27;36.07
16100;BME280;8154;50.830;12.082;2023-04-27T20:45:53;99682.19;;;23.21;35.67
16100;BME280;8154;50.830;12.082;2023-04-27T20:48:20;99681.59;;;23.19;35.85
16100;BME280;8154;50.830;12.082;2023-04-27T20:50:47;99673.31;;;23.14;35.99
16100;BME280;8154;50.830;12.082;2023-04-27T20:53:13;99667.34;;;23.12;35.98
16100;BME280;8154;50.830;12.082;2023-04-27T20:55:41;99671.28;;;23.16;35.80
16100;BME280;8154;50.830;12.082;2023-04-27T20:58:07;99670.09;;;23.18;35.88
16100;BME280;8154;50.830;12.082;2023-04-27T21:00:33;99670.09;;;23.18;35.74
16100;BME280;8154;50.830;12.082;2023-04-27T21:02:59;99676.25;;;23.19;35.67
16100;BME280;8154;50.830;12.082;2023-04-27T21:05:25;99669.63;;;23.15;35.73
16100;BME280;8154;50.830;12.082;2023-04-27T21:07:51;99678.84;;;23.12;36.01
16100;BME280;8154;50.830;12.082;2023-04-27T21:10:19;99672.28;;;23.15;35.63
16100;BME280;8154;50.830;12.082;2023-04-27T21:12:45;99676.81;;;23.14;35.96
16100;BME280;8154;50.830;12.082;2023-04-27T21:15:11;99665.97;;;23.16;35.96
16100;BME280;8154;50.830;12.082;2023-04-27T21:17:38;99673.97;;;23.16;35.82
16100;BME280;8154;50.830;12.082;2023-04-27T21:20:05;99664.28;;;23.15;35.97
16100;BME280;8154;50.830;12.082;2023-04-27T21:22:31;99667.97;;;23.14;35.74
16100;BME280;8154;50.830;12.082;2023-04-27T21:24:58;99665.31;;;23.14;35.95
16100;BME280;8154;50.830;12.082;2023-04-27T21:27:24;99665.97;;;23.16;35.86
16100;BME280;8154;50.830;12.082;2023-04-27T21:29:52;99660.19;;;23.12;35.88
16100;BME280;8154;50.830;12.082;2023-04-27T21:32:18;99664.09;;;23.16;35.89
16100;BME280;8154;50.830;12.082;2023-04-27T21:34:45;99659.97;;;23.14;35.64
16100;BME280;8154;50.830;12.082;2023-04-27T23:38:46;99574.53;;;23.01;35.83
16100;BME280;8154;50.830;12.082;2023-04-27T23:41:12;99576.19;;;23.02;35.69
16100;BME280;8154;50.830;12.082;2023-04-27T23:43:40;99572.50;;;23.03;35.70
16100;BME280;8154;50.830;12.082;2023-04-27T23:46:06;99566.13;;;23.04;35.75
16100;BME280;8154;50.830;12.082;2023-04-27T23:48:32;99574.31;;;23.02;35.81
16100;BME280;8154;50.830;12.082;2023-04-27T23:51:01;99570.47;;;23.05;35.93
16100;BME280;8154;50.830;12.082;2023-04-27T23:53:28;99571.47;;;23.04;35.95
16100;BME280;8154;50.830;12.082;2023-04-27T23:55:55;99573.34;;;23.03;35.70
16100;BME280;8154;50.830;12.082;2023-04-27T23:58:22;99573.16;;;23.05;35.71
